createdAt,value
2022-10-23T00:01:18.862Z,18.05
2022-10-23T00:03:47.877Z,18.03
2022-10-23T00:06:15.634Z,17.91
2022-10-23T00:08:44.290Z,17.94
2022-10-23T00:11:15.143Z,17.90
2022-10-23T00:13:43.300Z,17.86
2022-10-23T00:16:11.212Z,17.81
2022-10-23T00:18:39.291Z,17.76
2022-10-23T00:21:11.282Z,17.74
2022-10-23T00:23:39.193Z,17.74
2022-10-23T00:26:08.464Z,17.77
2022-10-23T00:28:36.179Z,17.84
2022-10-23T00:31:05.622Z,17.82
2022-10-23T00:33:33.524Z,17.83
2022-10-23T00:36:01.280Z,17.82
2022-10-23T00:38:29.062Z,17.85
2022-10-23T00:40:56.840Z,17.82
2022-10-23T00:43:27.208Z,17.78
2022-10-23T00:45:55.833Z,17.87
2022-10-23T00:48:23.997Z,17.73
2022-10-23T00:50:52.533Z,17.73
2022-10-23T00:53:23.312Z,17.78
2022-10-23T00:55:54.055Z,17.73
2022-10-23T00:58:22.141Z,17.79
2022-10-23T01:00:55.524Z,17.82
2022-10-23T01:03:27.810Z,17.82
2022-10-23T01:06:15.774Z,17.85
2022-10-23T01:08:55.507Z,17.84
2022-10-23T01:11:39.079Z,17.79
2022-10-23T01:14:18.190Z,17.78
2022-10-23T01:16:57.634Z,17.77
2022-10-23T01:19:57.943Z,17.71
2022-10-23T01:22:44.659Z,17.65
2022-10-23T01:25:37.492Z,17.63
2022-10-23T01:28:11.672Z,17.59
2022-10-23T01:30:44.717Z,17.50
2022-10-23T01:33:33.300Z,17.50
2022-10-23T01:36:08.905Z,17.48
2022-10-23T01:38:46.741Z,17.46
2022-10-23T01:41:35.930Z,17.46
2022-10-23T01:44:40.394Z,17.46
2022-10-23T01:47:11.790Z,17.46
2022-10-23T01:50:02.761Z,17.44
2022-10-23T01:52:31.030Z,17.41
2022-10-23T01:55:01.440Z,17.49
2022-10-23T01:57:33.888Z,17.41
2022-10-23T02:00:07.529Z,17.44
2022-10-23T02:02:52.816Z,17.35
2022-10-23T02:05:26.632Z,17.28
2022-10-23T02:07:56.720Z,17.17
2022-10-23T02:11:06.247Z,17.15
2022-10-23T02:13:46.390Z,17.24
2022-10-23T02:16:43.909Z,17.27
2022-10-23T02:19:42.636Z,17.22
2022-10-23T02:22:23.401Z,17.06
2022-10-23T02:25:01.235Z,16.93
2022-10-23T02:27:40.848Z,16.92
2022-10-23T02:30:12.027Z,17.02
2022-10-23T02:32:44.953Z,16.92
2022-10-23T02:35:14.157Z,16.97
2022-10-23T02:37:42.404Z,16.96
2022-10-23T02:40:11.827Z,16.94
2022-10-23T02:43:23.311Z,16.99
2022-10-23T02:46:10.220Z,16.97
2022-10-23T02:48:51.688Z,16.90
2022-10-23T02:51:26.270Z,16.93
2022-10-23T02:53:59.893Z,16.95
2022-10-23T02:56:38.527Z,16.96
2022-10-23T02:59:18.385Z,17.03
2022-10-23T03:01:52.185Z,17.05
2022-10-23T03:04:24.162Z,17.09
2022-10-23T03:06:52.249Z,17.05
2022-10-23T03:09:20.064Z,17.12
2022-10-23T03:11:47.835Z,17.22
2022-10-23T03:14:15.651Z,17.14
2022-10-23T03:16:43.426Z,17.13
2022-10-23T03:21:45.149Z,17.25
2022-10-23T03:24:13.098Z,17.24
2022-10-23T03:26:43.707Z,17.30
2022-10-23T03:29:11.444Z,17.35
2022-10-23T03:31:45.121Z,17.32
2022-10-23T03:34:13.947Z,17.27
2022-10-23T03:36:42.383Z,17.29
2022-10-23T03:39:11.316Z,17.30
2022-10-23T03:41:39.019Z,17.38
2022-10-23T03:44:06.768Z,17.42
2022-10-23T03:46:34.641Z,17.32
2022-10-23T03:49:02.451Z,17.42
2022-10-23T03:51:30.319Z,17.41
2022-10-23T03:53:58.636Z,17.39
2022-10-23T03:56:26.573Z,17.39
2022-10-23T03:58:54.335Z,17.44
2022-10-23T04:01:25.224Z,17.39
2022-10-23T04:03:53.227Z,17.34
2022-10-23T04:06:23.567Z,17.35
2022-10-23T04:08:55.956Z,17.37
2022-10-23T04:11:23.858Z,17.37
2022-10-23T04:13:51.599Z,17.38
2022-10-23T04:16:19.397Z,17.44
2022-10-23T04:18:47.277Z,17.53
2022-10-23T04:21:15.112Z,17.57
2022-10-23T04:23:43.141Z,17.57
2022-10-23T04:26:16.402Z,17.63
2022-10-23T04:28:44.199Z,17.60
2022-10-23T04:31:12.504Z,17.59
2022-10-23T04:33:42.375Z,17.53
2022-10-23T04:36:10.364Z,17.54
2022-10-23T04:38:38.088Z,17.51
2022-10-23T04:41:07.430Z,17.43
2022-10-23T04:43:35.486Z,17.37
2022-10-23T04:46:04.458Z,17.34
2022-10-23T04:48:32.629Z,17.24
2022-10-23T04:51:19.341Z,17.22
2022-10-23T04:54:05.552Z,17.19
2022-10-23T04:56:56.501Z,17.18
2022-10-23T04:59:25.322Z,17.14
2022-10-23T05:01:53.083Z,17.14
2022-10-23T05:04:20.964Z,17.12
2022-10-23T05:07:06.944Z,17.07
2022-10-23T05:09:50.920Z,17.09
2022-10-23T05:12:27.803Z,17.10
2022-10-23T05:14:55.867Z,17.05
2022-10-23T05:17:39.579Z,17.02
2022-10-23T05:20:12.884Z,17.03
2022-10-23T05:22:43.046Z,16.96
2022-10-23T05:25:13.732Z,16.92
2022-10-23T05:27:46.466Z,16.92
2022-10-23T05:30:16.596Z,16.94
2022-10-23T05:32:45.117Z,16.94
2022-10-23T05:35:22.237Z,16.96
2022-10-23T05:37:54.370Z,16.88
2022-10-23T05:40:25.223Z,16.92
2022-10-23T05:42:59.443Z,16.86
2022-10-23T05:45:41.864Z,16.79
2022-10-23T05:48:34.952Z,16.81
2022-10-23T05:51:23.671Z,16.70
2022-10-23T05:54:17.758Z,16.66
2022-10-23T05:57:18.761Z,16.72
2022-10-23T05:59:50.488Z,16.76
2022-10-23T06:02:27.308Z,16.77
2022-10-23T06:05:02.939Z,16.75
2022-10-23T06:07:47.665Z,16.75
2022-10-23T06:10:15.610Z,16.77
2022-10-23T06:12:46.711Z,16.75
2022-10-23T06:15:17.420Z,16.78
2022-10-23T06:18:06.058Z,16.88
2022-10-23T06:20:37.961Z,16.93
2022-10-23T06:23:23.112Z,17.04
2022-10-23T06:26:29.234Z,17.05
2022-10-23T06:29:02.212Z,17.25
2022-10-23T06:31:30.649Z,17.28
2022-10-23T06:33:59.894Z,17.33
2022-10-23T06:36:29.958Z,17.37
2022-10-23T06:39:10.348Z,17.50
2022-10-23T06:42:01.445Z,17.59
2022-10-23T06:44:47.880Z,17.71
2022-10-23T06:47:24.982Z,17.78
2022-10-23T06:50:14.595Z,17.87
2022-10-23T06:52:47.293Z,17.97
2022-10-23T06:55:18.569Z,18.09
2022-10-23T06:57:47.288Z,18.19
2022-10-23T07:00:15.464Z,18.23
2022-10-23T07:02:53.461Z,18.48
2022-10-23T07:05:21.416Z,18.53
2022-10-23T07:07:49.223Z,18.74
2022-10-23T07:10:23.196Z,19.11
2022-10-23T07:13:01.094Z,19.30
2022-10-23T07:15:41.077Z,19.44
2022-10-23T07:18:14.768Z,19.64
2022-10-23T07:21:01.273Z,19.67
2022-10-23T07:23:30.976Z,19.56
2022-10-23T07:26:10.321Z,19.58
2022-10-23T07:28:38.962Z,19.74
2022-10-23T07:31:06.756Z,19.83
2022-10-23T07:33:57.501Z,20.00
2022-10-23T07:36:25.418Z,20.08
2022-10-23T07:38:53.313Z,20.08
2022-10-23T07:41:21.856Z,20.28
2022-10-23T07:43:49.652Z,20.49
2022-10-23T07:46:17.535Z,20.61
2022-10-23T07:48:45.337Z,20.66
2022-10-23T07:51:16.040Z,21.14
2022-10-23T07:53:50.412Z,21.28
2022-10-23T07:56:56.693Z,21.59
2022-10-23T07:59:29.369Z,21.75
2022-10-23T08:02:01.455Z,22.01
2022-10-23T08:04:34.030Z,22.06
2022-10-23T08:07:09.559Z,22.22
2022-10-23T08:09:42.562Z,22.44
2022-10-23T08:12:10.494Z,22.36
2022-10-23T08:14:38.696Z,22.42
2022-10-23T08:17:09.998Z,22.06
2022-10-23T08:20:04.537Z,21.96
2022-10-23T08:22:39.303Z,21.97
2022-10-23T08:25:07.618Z,22.02
2022-10-23T08:27:35.359Z,22.22
2022-10-23T08:30:03.515Z,22.01
2022-10-23T08:32:31.730Z,22.07
2022-10-23T08:35:00.873Z,22.07
2022-10-23T08:37:31.969Z,21.95
2022-10-23T08:40:00.034Z,21.81
2022-10-23T08:42:57.277Z,21.90
2022-10-23T08:45:47.504Z,22.02
2022-10-23T08:49:12.319Z,21.99
2022-10-23T08:51:54.995Z,22.28
2022-10-23T08:54:55.343Z,22.60
2022-10-23T08:57:24.289Z,22.62
2022-10-23T09:00:14.999Z,22.63
2022-10-23T09:02:48.809Z,22.59
2022-10-23T09:05:35.290Z,22.89
2022-10-23T09:08:05.646Z,22.88
2022-10-23T09:10:42.870Z,22.99
2022-10-23T09:13:28.577Z,22.91
2022-10-23T09:16:23.299Z,23.15
2022-10-23T09:18:51.019Z,23.76
2022-10-23T09:21:18.934Z,24.08
2022-10-23T09:23:46.702Z,24.10
2022-10-23T09:26:18.754Z,24.45
2022-10-23T09:28:49.569Z,24.57
2022-10-23T09:31:18.257Z,24.26
2022-10-23T09:33:59.923Z,24.56
2022-10-23T09:36:29.634Z,24.05
2022-10-23T09:39:00.394Z,23.83
2022-10-23T09:41:31.080Z,23.82
2022-10-23T09:44:07.769Z,24.13
2022-10-23T09:46:43.630Z,24.08
2022-10-23T09:49:27.363Z,24.47
2022-10-23T09:52:06.271Z,24.33
2022-10-23T09:54:38.644Z,24.42
2022-10-23T09:57:18.262Z,25.04
2022-10-23T09:59:52.024Z,24.87
2022-10-23T10:02:29.425Z,25.28
2022-10-23T10:05:24.377Z,25.14
2022-10-23T10:08:00.153Z,25.18
2022-10-23T10:10:40.033Z,24.49
2022-10-23T10:13:30.588Z,24.49
2022-10-23T10:16:44.598Z,24.33
2022-10-23T10:19:28.262Z,24.01
2022-10-23T10:22:20.535Z,24.23
2022-10-23T10:24:59.513Z,24.04
2022-10-23T10:27:46.011Z,24.20
2022-10-23T10:30:16.649Z,24.75
2022-10-23T10:32:52.043Z,24.57
2022-10-23T10:35:27.060Z,24.60
2022-10-23T10:38:26.870Z,24.57
2022-10-23T10:41:19.158Z,24.62
2022-10-23T10:44:08.172Z,24.31
2022-10-23T10:46:53.957Z,24.72
2022-10-23T10:49:31.820Z,24.72
2022-10-23T10:52:37.971Z,24.60
2022-10-23T10:55:33.985Z,24.78
2022-10-23T10:58:11.018Z,24.82
2022-10-23T11:00:38.907Z,24.74
2022-10-23T11:03:39.978Z,24.83
2022-10-23T11:06:16.057Z,25.36
2022-10-23T11:08:57.644Z,24.67
2022-10-23T11:11:41.093Z,24.70
2022-10-23T11:14:26.872Z,24.80
2022-10-23T11:17:06.002Z,25.11
2022-10-23T11:19:41.756Z,25.13
2022-10-23T11:22:43.242Z,24.70
2022-10-23T11:25:44.988Z,25.33
2022-10-23T11:28:30.754Z,25.67
2022-10-23T11:31:32.963Z,25.23
2022-10-23T11:34:12.925Z,24.86
2022-10-23T11:36:53.133Z,24.49
2022-10-23T11:39:25.172Z,24.91
2022-10-23T11:42:11.919Z,25.52
2022-10-23T11:44:47.122Z,25.65
2022-10-23T11:47:58.306Z,26.56
2022-10-23T11:50:38.308Z,26.60
2022-10-23T11:53:23.405Z,26.22
2022-10-23T11:56:02.084Z,25.95
2022-10-23T11:58:54.018Z,26.27
2022-10-23T12:01:43.277Z,25.73
2022-10-23T12:04:45.673Z,25.90
2022-10-23T12:07:30.415Z,26.07
2022-10-23T12:10:40.673Z,26.40
2022-10-23T12:13:36.628Z,25.95
2022-10-23T12:16:10.212Z,25.84
2022-10-23T12:18:51.045Z,25.85
2022-10-23T12:21:22.274Z,26.35
2022-10-23T12:24:13.184Z,26.19
2022-10-23T12:26:50.956Z,26.40
2022-10-23T12:29:27.614Z,26.72
2022-10-23T12:32:07.859Z,26.22
2022-10-23T12:34:42.557Z,26.18
2022-10-23T12:37:28.896Z,26.50
2022-10-23T12:39:56.853Z,26.50
2022-10-23T12:42:27.334Z,26.49
2022-10-23T12:45:24.287Z,26.86
2022-10-23T12:47:52.994Z,26.95
2022-10-23T12:50:22.471Z,26.98
2022-10-23T12:52:57.677Z,26.58
2022-10-23T12:55:35.834Z,26.28
2022-10-23T12:58:03.914Z,26.01
2022-10-23T13:00:32.127Z,26.65
2022-10-23T13:03:02.300Z,26.56
2022-10-23T13:05:32.445Z,26.21
2022-10-23T13:08:04.853Z,25.96
2022-10-23T13:10:44.331Z,25.83
2022-10-23T13:13:14.538Z,25.57
2022-10-23T13:15:44.469Z,25.20
2022-10-23T13:18:14.658Z,25.25
2022-10-23T13:20:44.043Z,25.16
2022-10-23T13:23:18.863Z,25.37
2022-10-23T13:25:57.537Z,25.35
2022-10-23T13:28:43.181Z,25.47
2022-10-23T13:31:10.957Z,25.25
2022-10-23T13:33:45.867Z,25.22
2022-10-23T13:36:16.897Z,25.13
2022-10-23T13:39:02.222Z,25.24
2022-10-23T13:41:47.826Z,25.19
2022-10-23T13:44:21.230Z,25.30
2022-10-23T13:46:49.846Z,25.46
2022-10-23T13:49:18.602Z,25.30
2022-10-23T13:51:55.563Z,24.99
2022-10-23T13:54:25.573Z,24.98
2022-10-23T13:56:55.198Z,25.33
2022-10-23T13:59:23.539Z,25.06
2022-10-23T14:01:52.275Z,25.03
2022-10-23T14:04:21.113Z,25.05
2022-10-23T14:06:58.688Z,25.27
2022-10-23T14:09:26.673Z,25.60
2022-10-23T14:11:54.466Z,25.06
2022-10-23T14:14:22.242Z,25.28
2022-10-23T14:16:50.018Z,25.36
2022-10-23T14:19:17.755Z,25.14
2022-10-23T14:21:45.523Z,25.16
2022-10-23T14:24:14.840Z,25.12
2022-10-23T14:26:43.349Z,25.15
2022-10-23T14:29:18.702Z,25.19
2022-10-23T14:31:49.312Z,25.15
2022-10-23T14:34:17.230Z,24.99
2022-10-23T14:36:50.238Z,24.88
2022-10-23T14:39:24.410Z,24.93
2022-10-23T14:41:52.126Z,24.83
2022-10-23T14:44:19.883Z,24.60
2022-10-23T14:46:47.713Z,24.92
2022-10-23T14:49:15.485Z,24.94
2022-10-23T14:51:43.284Z,24.90
2022-10-23T14:54:11.024Z,24.67
2022-10-23T14:56:42.360Z,24.67
2022-10-23T14:59:11.755Z,24.76
2022-10-23T15:01:45.132Z,24.47
2022-10-23T15:04:14.865Z,24.67
2022-10-23T15:06:43.930Z,24.70
2022-10-23T15:09:11.689Z,24.41
2022-10-23T15:11:39.861Z,24.62
2022-10-23T15:14:07.741Z,24.52
2022-10-23T15:16:41.433Z,24.54
2022-10-23T15:19:13.457Z,24.39
2022-10-23T15:21:44.999Z,24.47
2022-10-23T15:24:12.836Z,24.40
2022-10-23T15:26:43.212Z,24.45
2022-10-23T15:29:12.546Z,24.26
2022-10-23T15:31:43.259Z,24.05
2022-10-23T15:34:14.564Z,23.93
2022-10-23T15:36:43.315Z,23.79
2022-10-23T15:39:13.211Z,23.74
2022-10-23T15:41:43.446Z,23.65
2022-10-23T15:44:17.847Z,23.66
2022-10-23T15:46:46.005Z,23.59
2022-10-23T15:49:13.842Z,23.52
2022-10-23T15:51:42.714Z,23.45
2022-10-23T15:54:17.411Z,23.29
2022-10-23T15:56:51.749Z,23.25
2022-10-23T15:59:24.041Z,23.22
2022-10-23T16:01:52.543Z,23.21
2022-10-23T16:04:20.578Z,23.12
2022-10-23T16:06:49.327Z,23.05
2022-10-23T16:09:17.500Z,23.03
2022-10-23T16:11:45.535Z,22.95
2022-10-23T16:14:17.609Z,22.94
2022-10-23T16:16:45.859Z,22.96
2022-10-23T16:19:13.780Z,22.91
2022-10-23T16:21:42.161Z,22.88
2022-10-23T16:24:10.398Z,22.79
2022-10-23T16:26:40.866Z,22.75
2022-10-23T16:29:09.667Z,22.64
2022-10-23T16:31:37.786Z,22.58
2022-10-23T16:34:06.523Z,22.60
2022-10-23T16:36:35.447Z,22.63
2022-10-23T16:39:22.092Z,22.61
2022-10-23T16:42:08.681Z,22.46
2022-10-23T16:44:51.709Z,22.40
2022-10-23T16:47:19.763Z,22.34
2022-10-23T16:49:47.614Z,22.33
2022-10-23T16:52:15.984Z,22.33
2022-10-23T16:54:44.614Z,22.36
2022-10-23T16:57:12.455Z,22.33
2022-10-23T16:59:40.354Z,22.20
2022-10-23T17:02:11.189Z,22.15
2022-10-23T17:04:40.180Z,22.07
2022-10-23T17:07:08.175Z,22.01
2022-10-23T17:09:36.645Z,22.03
2022-10-23T17:12:04.632Z,21.98
2022-10-23T17:14:32.663Z,21.91
2022-10-23T17:17:05.778Z,21.91
2022-10-23T17:19:44.536Z,21.82
2022-10-23T17:22:14.037Z,21.77
2022-10-23T17:24:44.317Z,21.74
2022-10-23T17:27:14.121Z,21.61
2022-10-23T17:29:43.089Z,21.46
2022-10-23T17:32:11.130Z,21.27
2022-10-23T17:34:38.943Z,21.23
2022-10-23T17:37:08.855Z,21.13
2022-10-23T17:39:36.730Z,21.06
2022-10-23T17:42:04.664Z,20.99
2022-10-23T17:44:32.513Z,20.93
2022-10-23T17:47:00.247Z,20.96
2022-10-23T17:49:28.087Z,20.95
2022-10-23T17:51:57.666Z,20.87
2022-10-23T17:54:27.070Z,20.81
2022-10-23T17:56:55.250Z,20.78
2022-10-23T17:59:23.279Z,20.72
2022-10-23T18:01:51.297Z,20.66
2022-10-23T18:04:20.715Z,20.63
2022-10-23T18:06:51.180Z,20.54
2022-10-23T18:09:20.250Z,20.51
2022-10-23T18:11:48.662Z,20.48
2022-10-23T18:14:18.680Z,20.40
2022-10-23T18:16:46.884Z,20.38
2022-10-23T18:19:18.450Z,20.27
2022-10-23T18:21:47.918Z,20.24
2022-10-23T18:24:16.494Z,20.15
2022-10-23T18:26:44.806Z,20.13
2022-10-23T18:29:12.941Z,20.07
2022-10-23T18:31:41.645Z,20.03
2022-10-23T18:34:16.927Z,19.98
2022-10-23T18:36:45.396Z,19.91
2022-10-23T18:39:17.082Z,19.87
2022-10-23T18:41:46.680Z,19.80
2022-10-23T18:44:40.093Z,19.74
2022-10-23T18:47:08.540Z,19.64
2022-10-23T18:49:36.417Z,19.65
2022-10-23T18:52:04.536Z,19.60
2022-10-23T18:54:32.459Z,19.50
2022-10-23T18:57:00.366Z,19.49
2022-10-23T18:59:28.604Z,19.50
2022-10-23T19:01:56.822Z,19.46
2022-10-23T19:04:24.802Z,19.44
2022-10-23T19:06:52.863Z,19.43
2022-10-23T19:09:21.951Z,19.38
2022-10-23T19:11:49.896Z,19.36
2022-10-23T19:14:17.763Z,19.34
2022-10-23T19:17:07.961Z,19.33
2022-10-23T19:19:43.544Z,19.25
2022-10-23T19:22:12.747Z,19.24
2022-10-23T19:24:46.042Z,19.15
2022-10-23T19:27:14.141Z,19.10
2022-10-23T19:29:45.420Z,19.10
2022-10-23T19:32:14.832Z,19.13
2022-10-23T19:34:45.615Z,19.07
2022-10-23T19:39:46.834Z,18.90
2022-10-23T19:42:15.026Z,18.91
2022-10-23T19:44:42.747Z,18.71
2022-10-23T19:47:11.754Z,18.77
2022-10-23T19:49:39.700Z,18.75
2022-10-23T19:52:07.800Z,18.74
2022-10-23T19:54:37.930Z,18.74
2022-10-23T19:57:05.709Z,18.76
2022-10-23T19:59:34.082Z,18.67
2022-10-23T20:02:02.524Z,18.49
2022-10-23T20:04:30.744Z,18.59
2022-10-23T20:07:01.936Z,18.60
2022-10-23T20:09:31.027Z,18.49
2022-10-23T20:12:00.647Z,18.40
2022-10-23T20:14:28.639Z,18.50
2022-10-23T20:16:56.611Z,18.44
2022-10-23T20:19:25.001Z,18.51
2022-10-23T20:21:52.921Z,18.47
2022-10-23T20:24:21.586Z,18.53
2022-10-23T20:26:52.205Z,18.48
2022-10-23T20:29:21.043Z,18.46
2022-10-23T20:31:50.738Z,18.40
2022-10-23T20:34:19.339Z,18.36
2022-10-23T20:36:50.034Z,18.36
2022-10-23T20:39:25.652Z,18.33
2022-10-23T20:41:55.463Z,18.31
2022-10-23T20:44:24.740Z,18.30
2022-10-23T20:46:52.926Z,18.39
2022-10-23T20:49:21.825Z,18.31
2022-10-23T20:51:56.460Z,18.31
2022-10-23T20:54:28.975Z,18.33
2022-10-23T20:57:00.062Z,18.27
2022-10-23T20:59:28.807Z,18.29
2022-10-23T21:01:57.625Z,18.31
2022-10-23T21:04:27.882Z,18.23
2022-10-23T21:07:09.293Z,18.22
2022-10-23T21:10:03.687Z,18.20
2022-10-23T21:12:37.843Z,18.19
2022-10-23T21:15:06.783Z,18.17
2022-10-23T21:17:38.836Z,18.12
2022-10-23T21:20:07.585Z,18.01
2022-10-23T21:22:35.378Z,17.93
2022-10-23T21:25:03.238Z,17.97
2022-10-23T21:27:31.137Z,17.84
2022-10-23T21:29:58.995Z,17.88
2022-10-23T21:32:26.777Z,17.86
2022-10-23T21:34:55.241Z,17.87
2022-10-23T21:37:25.190Z,17.78
2022-10-23T21:39:52.964Z,17.76
2022-10-23T21:42:20.840Z,17.78
2022-10-23T21:44:48.654Z,17.73
2022-10-23T21:47:16.410Z,17.78
2022-10-23T21:49:44.323Z,17.83
2022-10-23T21:52:14.005Z,17.80
2022-10-23T21:54:44.000Z,17.84
2022-10-23T21:57:15.229Z,17.83
2022-10-23T21:59:44.333Z,17.85
2022-10-23T22:02:12.270Z,17.78
2022-10-23T22:04:40.154Z,17.76
2022-10-23T22:07:10.934Z,17.75
2022-10-23T22:09:38.739Z,17.67
2022-10-23T22:12:06.460Z,17.71
2022-10-23T22:14:36.264Z,17.72
2022-10-23T22:17:04.056Z,17.64
2022-10-23T22:19:31.991Z,17.65
2022-10-23T22:21:59.769Z,17.62
2022-10-23T22:24:27.572Z,17.53
2022-10-23T22:26:56.755Z,17.44
2022-10-23T22:29:27.263Z,17.44
2022-10-23T22:31:55.417Z,17.50
2022-10-23T22:34:48.003Z,17.47
2022-10-23T22:37:13.642Z,17.54
2022-10-23T22:39:41.545Z,17.47
2022-10-23T22:42:09.596Z,17.44
2022-10-23T22:44:37.367Z,17.43
2022-10-23T22:47:05.360Z,17.41
2022-10-23T22:49:33.132Z,17.44
2022-10-23T22:52:00.980Z,17.51
2022-10-23T22:54:30.593Z,17.52
2022-10-23T22:56:58.474Z,17.54
2022-10-23T22:59:26.293Z,17.52
2022-10-23T23:01:54.396Z,17.51
2022-10-23T23:04:38.616Z,17.50
2022-10-23T23:07:07.605Z,17.45
2022-10-23T23:09:44.048Z,17.45
2022-10-23T23:12:13.933Z,17.48
2022-10-23T23:14:42.341Z,17.42
2022-10-23T23:17:10.772Z,17.42
2022-10-23T23:19:38.808Z,17.34
2022-10-23T23:22:06.834Z,17.28
2022-10-23T23:24:34.583Z,17.37
2022-10-23T23:27:02.452Z,17.39
2022-10-23T23:29:30.209Z,17.39
2022-10-23T23:31:58.339Z,17.36
2022-10-23T23:34:26.243Z,17.35
2022-10-23T23:36:53.976Z,17.34
2022-10-23T23:39:21.700Z,17.29
2022-10-23T23:41:49.604Z,17.26
2022-10-23T23:44:17.374Z,17.29
2022-10-23T23:46:45.098Z,17.27
2022-10-23T23:49:12.867Z,17.28
2022-10-23T23:51:40.710Z,17.25
2022-10-23T23:54:08.486Z,17.19
2022-10-23T23:56:36.235Z,17.27
2022-10-23T23:59:04.529Z,17.26
